sensor_id;sensor_type;location;lat;lon;timestamp;pressure;altitude;pressure_sealevel;temperature;humidity
81545;BME280;70990;50.618;7.346;2024-01-16T00:00:10;97418.75;;;-0.21;88.16
81545;BME280;70990;50.618;7.346;2024-01-16T00:02:37;97423.78;;;-0.42;87.76
81545;BME280;70990;50.618;7.346;2024-01-16T00:05:04;97434.06;;;-0.32;88.03
81545;BME280;70990;50.618;7.346;2024-01-16T00:07:31;97428.50;;;-0.39;88.49
81545;BME280;70990;50.618;7.346;2024-01-16T00:09:57;97440.34;;;-0.28;88.04
81545;BME280;70990;50.618;7.346;2024-01-16T00:12:24;97433.34;;;-0.29;88.08
81545;BME280;70990;50.618;7.346;2024-01-16T00:14:50;97431.63;;;-0.37;88.83
81545;BME280;70990;50.618;7.346;2024-01-16T00:17:17;97433.34;;;-0.29;87.80
81545;BME280;70990;50.618;7.346;2024-01-16T00:19:43;97441.47;;;-0.29;88.57
81545;BME280;70990;50.618;7.346;2024-01-16T00:22:10;97438.31;;;-0.31;88.16
81545;BME280;70990;50.618;7.346;2024-01-16T00:24:36;97452.69;;;-0.30;87.76
81545;BME280;70990;50.618;7.346;2024-01-16T00:27:03;97443.75;;;-0.31;88.28
81545;BME280;70990;50.618;7.346;2024-01-16T00:29:33;97441.50;;;-0.48;88.26
81545;BME280;70990;50.618;7.346;2024-01-16T00:31:59;97456.50;;;-0.35;88.37
81545;BME280;70990;50.618;7.346;2024-01-16T00:34:26;97454.56;;;-0.34;87.97
81545;BME280;70990;50.618;7.346;2024-01-16T00:36:52;97455.03;;;-0.29;88.43
81545;BME280;70990;50.618;7.346;2024-01-16T00:39:19;97452.47;;;-0.22;87.10
81545;BME280;70990;50.618;7.346;2024-01-16T00:41:45;97457.72;;;-0.32;87.51
81545;BME280;70990;50.618;7.346;2024-01-16T00:44:12;97457.06;;;-0.26;87.83
81545;BME280;70990;50.618;7.346;2024-01-16T00:46:39;97460.41;;;-0.32;87.90
81545;BME280;70990;50.618;7.346;2024-01-16T00:49:05;97460.47;;;-0.29;88.01
81545;BME280;70990;50.618;7.346;2024-01-16T00:51:32;97466.28;;;-0.50;88.08
81545;BME280;70990;50.618;7.346;2024-01-16T00:53:58;97468.19;;;-0.31;87.83
81545;BME280;70990;50.618;7.346;2024-01-16T00:56:25;97462.44;;;-0.49;88.11
81545;BME280;70990;50.618;7.346;2024-01-16T00:58:51;97460.28;;;-0.39;88.29
81545;BME280;70990;50.618;7.346;2024-01-16T01:01:18;97468.59;;;-0.52;87.82
81545;BME280;70990;50.618;7.346;2024-01-16T01:03:45;97464.19;;;-0.37;88.49
81545;BME280;70990;50.618;7.346;2024-01-16T01:06:11;97478.56;;;-0.56;88.07
81545;BME280;70990;50.618;7.346;2024-01-16T01:08:38;97461.63;;;-0.49;88.77
81545;BME280;70990;50.618;7.346;2024-01-16T01:11:05;97471.06;;;-0.43;88.66
81545;BME280;70990;50.618;7.346;2024-01-16T01:13:31;97460.31;;;-0.59;88.72
81545;BME280;70990;50.618;7.346;2024-01-16T01:15:58;97467.41;;;-0.31;87.98
81545;BME280;70990;50.618;7.346;2024-01-16T01:18:24;97465.22;;;-0.45;88.09
81545;BME280;70990;50.618;7.346;2024-01-16T01:20:51;97463.41;;;-0.37;88.18
81545;BME280;70990;50.618;7.346;2024-01-16T01:23:18;97468.06;;;-0.38;88.44
81545;BME280;70990;50.618;7.346;2024-01-16T01:25:44;97472.06;;;-0.32;88.18
81545;BME280;70990;50.618;7.346;2024-01-16T01:28:11;97470.50;;;-0.33;87.52
81545;BME280;70990;50.618;7.346;2024-01-16T01:30:37;97470.28;;;-0.44;87.80
81545;BME280;70990;50.618;7.346;2024-01-16T01:33:04;97478.75;;;-0.26;87.66
81545;BME280;70990;50.618;7.346;2024-01-16T01:35:31;97477.22;;;-0.46;87.72
81545;BME280;70990;50.618;7.346;2024-01-16T01:37:58;97479.34;;;-0.36;86.91
81545;BME280;70990;50.618;7.346;2024-01-16T01:40:24;97480.78;;;-0.42;87.51
81545;BME280;70990;50.618;7.346;2024-01-16T01:42:51;97480.94;;;-0.54;87.69
81545;BME280;70990;50.618;7.346;2024-01-16T01:45:17;97486.63;;;-0.40;87.05
81545;BME280;70990;50.618;7.346;2024-01-16T01:47:44;97481.22;;;-0.40;87.56
81545;BME280;70990;50.618;7.346;2024-01-16T01:50:11;97485.78;;;-0.44;87.09
81545;BME280;70990;50.618;7.346;2024-01-16T01:52:40;97482.97;;;-0.28;87.25
81545;BME280;70990;50.618;7.346;2024-01-16T01:55:11;97487.97;;;-0.50;86.87
81545;BME280;70990;50.618;7.346;2024-01-16T01:57:39;97493.78;;;-0.32;87.27
81545;BME280;70990;50.618;7.346;2024-01-16T02:00:06;97497.03;;;-0.23;87.32
81545;BME280;70990;50.618;7.346;2024-01-16T02:02:41;97500.38;;;-0.29;87.19
81545;BME280;70990;50.618;7.346;2024-01-16T02:05:08;97495.22;;;-0.38;86.94
81545;BME280;70990;50.618;7.346;2024-01-16T02:07:35;97503.75;;;-0.36;87.13
81545;BME280;70990;50.618;7.346;2024-01-16T02:10:02;97507.34;;;-0.32;87.18
81545;BME280;70990;50.618;7.346;2024-01-16T02:12:29;97502.56;;;-0.38;87.13
81545;BME280;70990;50.618;7.346;2024-01-16T02:14:55;97505.84;;;-0.49;87.00
81545;BME280;70990;50.618;7.346;2024-01-16T02:17:22;97508.03;;;-0.35;86.75
81545;BME280;70990;50.618;7.346;2024-01-16T02:19:49;97508.72;;;-0.19;86.69
81545;BME280;70990;50.618;7.346;2024-01-16T02:22:19;97512.19;;;-0.41;86.19
81545;BME280;70990;50.618;7.346;2024-01-16T02:24:47;97503.84;;;-0.32;86.66
81545;BME280;70990;50.618;7.346;2024-01-16T02:27:14;97513.00;;;-0.18;85.90
81545;BME280;70990;50.618;7.346;2024-01-16T02:29:41;97518.03;;;-0.20;86.15
81545;BME280;70990;50.618;7.346;2024-01-16T02:32:11;97514.41;;;-0.47;85.97
81545;BME280;70990;50.618;7.346;2024-01-16T02:34:38;97510.63;;;-0.42;86.55
81545;BME280;70990;50.618;7.346;2024-01-16T02:37:05;97521.47;;;-0.61;88.03
81545;BME280;70990;50.618;7.346;2024-01-16T02:39:31;97513.78;;;-0.59;88.85
81545;BME280;70990;50.618;7.346;2024-01-16T02:41:58;97523.03;;;-0.60;90.02
81545;BME280;70990;50.618;7.346;2024-01-16T02:44:24;97519.78;;;-0.69;90.77
81545;BME280;70990;50.618;7.346;2024-01-16T02:46:51;97510.31;;;-0.56;90.88
81545;BME280;70990;50.618;7.346;2024-01-16T02:49:17;97507.91;;;-0.61;90.94
81545;BME280;70990;50.618;7.346;2024-01-16T02:51:44;97508.63;;;-0.84;91.02
81545;BME280;70990;50.618;7.346;2024-01-16T02:54:10;97505.28;;;-0.77;91.22
81545;BME280;70990;50.618;7.346;2024-01-16T02:56:37;97504.16;;;-0.57;91.42
81545;BME280;70990;50.618;7.346;2024-01-16T02:59:04;97516.31;;;-0.86;90.74
81545;BME280;70990;50.618;7.346;2024-01-16T03:01:30;97504.59;;;-1.09;92.10
81545;BME280;70990;50.618;7.346;2024-01-16T03:03:57;97510.69;;;-0.77;92.01
81545;BME280;70990;50.618;7.346;2024-01-16T03:06:25;97508.63;;;-0.84;92.09
81545;BME280;70990;50.618;7.346;2024-01-16T03:08:52;97508.91;;;-0.89;92.15
81545;BME280;70990;50.618;7.346;2024-01-16T03:11:18;97517.84;;;-0.88;92.13
81545;BME280;70990;50.618;7.346;2024-01-16T03:13:45;97520.47;;;-0.92;91.76
81545;BME280;70990;50.618;7.346;2024-01-16T03:16:12;97521.25;;;-0.91;91.74
81545;BME280;70990;50.618;7.346;2024-01-16T03:18:38;97524.91;;;-0.84;92.14
81545;BME280;70990;50.618;7.346;2024-01-16T03:21:05;97520.75;;;-0.77;91.54
81545;BME280;70990;50.618;7.346;2024-01-16T03:23:32;97516.28;;;-0.51;90.75
81545;BME280;70990;50.618;7.346;2024-01-16T03:25:59;97512.78;;;-0.51;90.65
81545;BME280;70990;50.618;7.346;2024-01-16T03:28:26;97521.59;;;-0.35;89.56
81545;BME280;70990;50.618;7.346;2024-01-16T03:30:52;97508.63;;;-0.64;90.91
81545;BME280;70990;50.618;7.346;2024-01-16T03:33:19;97515.75;;;-0.56;89.99
81545;BME280;70990;50.618;7.346;2024-01-16T03:35:46;97512.47;;;-0.85;90.92
81545;BME280;70990;50.618;7.346;2024-01-16T03:38:13;97508.34;;;-0.78;91.19
81545;BME280;70990;50.618;7.346;2024-01-16T03:40:39;97513.91;;;-0.91;91.11
81545;BME280;70990;50.618;7.346;2024-01-16T03:43:06;97510.13;;;-0.67;90.13
81545;BME280;70990;50.618;7.346;2024-01-16T03:45:32;97501.78;;;-0.77;90.28
81545;BME280;70990;50.618;7.346;2024-01-16T03:47:59;97506.91;;;-0.72;89.32
81545;BME280;70990;50.618;7.346;2024-01-16T03:50:25;97514.34;;;-0.69;90.18
81545;BME280;70990;50.618;7.346;2024-01-16T03:52:52;97508.63;;;-0.84;90.76
81545;BME280;70990;50.618;7.346;2024-01-16T03:55:19;97515.34;;;-0.77;89.46
81545;BME280;70990;50.618;7.346;2024-01-16T03:57:45;97517.59;;;-0.79;89.60
81545;BME280;70990;50.618;7.346;2024-01-16T04:00:12;97519.78;;;-0.69;88.97
81545;BME280;70990;50.618;7.346;2024-01-16T04:02:39;97515.06;;;-0.53;89.03
81545;BME280;70990;50.618;7.346;2024-01-16T04:05:06;97508.94;;;-0.69;89.03
81545;BME280;70990;50.618;7.346;2024-01-16T04:07:33;97505.13;;;-0.84;89.16
81545;BME280;70990;50.618;7.346;2024-01-16T04:10:00;97512.13;;;-0.64;89.24
81545;BME280;70990;50.618;7.346;2024-01-16T04:12:26;97514.50;;;-0.82;89.24
81545;BME280;70990;50.618;7.346;2024-01-16T04:14:53;97513.75;;;-0.78;89.35
81545;BME280;70990;50.618;7.346;2024-01-16T04:17:19;97512.03;;;-0.87;89.28
81545;BME280;70990;50.618;7.346;2024-01-16T04:19:46;97514.06;;;-0.84;89.76
81545;BME280;70990;50.618;7.346;2024-01-16T04:22:12;97515.25;;;-0.81;89.22
81545;BME280;70990;50.618;7.346;2024-01-16T04:24:39;97515.03;;;-0.92;90.31
81545;BME280;70990;50.618;7.346;2024-01-16T04:27:05;97508.97;;;-0.85;90.17
81545;BME280;70990;50.618;7.346;2024-01-16T04:29:32;97508.03;;;-0.93;90.43
81545;BME280;70990;50.618;7.346;2024-01-16T04:31:59;97498.47;;;-1.06;90.71
81545;BME280;70990;50.618;7.346;2024-01-16T04:34:25;97509.41;;;-0.83;89.81
81545;BME280;70990;50.618;7.346;2024-01-16T04:36:52;97509.84;;;-1.00;90.54
81545;BME280;70990;50.618;7.346;2024-01-16T04:39:18;97523.22;;;-1.07;91.07
81545;BME280;70990;50.618;7.346;2024-01-16T04:41:45;97510.06;;;-0.90;91.20
81545;BME280;70990;50.618;7.346;2024-01-16T04:44:12;97516.00;;;-1.19;91.47
81545;BME280;70990;50.618;7.346;2024-01-16T04:46:39;97504.19;;;-0.92;91.06
81545;BME280;70990;50.618;7.346;2024-01-16T04:49:05;97509.75;;;-0.85;90.15
81545;BME280;70990;50.618;7.346;2024-01-16T04:51:32;97506.84;;;-0.95;90.45
81545;BME280;70990;50.618;7.346;2024-01-16T04:53:58;97512.75;;;-0.90;89.85
81545;BME280;70990;50.618;7.346;2024-01-16T04:56:25;97501.59;;;-1.04;90.20
81545;BME280;70990;50.618;7.346;2024-01-16T04:58:51;97513.88;;;-1.10;90.36
81545;BME280;70990;50.618;7.346;2024-01-16T05:01:18;97511.19;;;-0.91;89.77
81545;BME280;70990;50.618;7.346;2024-01-16T05:03:44;97513.47;;;-0.93;89.91
81545;BME280;70990;50.618;7.346;2024-01-16T05:06:14;97499.25;;;-1.05;90.60
81545;BME280;70990;50.618;7.346;2024-01-16T05:08:42;97501.75;;;-0.97;89.69
81545;BME280;70990;50.618;7.346;2024-01-16T05:11:09;97509.69;;;-1.07;90.15
81545;BME280;70990;50.618;7.346;2024-01-16T05:13:35;97510.03;;;-1.09;90.53
81545;BME280;70990;50.618;7.346;2024-01-16T05:16:02;97507.34;;;-0.90;89.98
81545;BME280;70990;50.618;7.346;2024-01-16T05:18:29;97509.28;;;-1.06;89.59
81545;BME280;70990;50.618;7.346;2024-01-16T05:20:56;97495.34;;;-1.08;90.44
81545;BME280;70990;50.618;7.346;2024-01-16T05:23:26;97495.75;;;-1.06;90.03
81545;BME280;70990;50.618;7.346;2024-01-16T05:25:52;97503.34;;;-0.96;90.54
81545;BME280;70990;50.618;7.346;2024-01-16T05:28:19;97499.38;;;-1.17;90.43
81545;BME280;70990;50.618;7.346;2024-01-16T05:30:45;97494.44;;;-1.12;90.23
81545;BME280;70990;50.618;7.346;2024-01-16T05:33:12;97498.56;;;-1.18;90.77
81545;BME280;70990;50.618;7.346;2024-01-16T05:35:39;97498.38;;;-1.09;90.39
81545;BME280;70990;50.618;7.346;2024-01-16T05:38:05;97495.09;;;-1.18;90.64
81545;BME280;70990;50.618;7.346;2024-01-16T05:40:32;97487.97;;;-1.42;90.79
81545;BME280;70990;50.618;7.346;2024-01-16T05:42:59;97486.19;;;-1.00;90.81
81545;BME280;70990;50.618;7.346;2024-01-16T05:45:25;97494.09;;;-1.10;90.50
81545;BME280;70990;50.618;7.346;2024-01-16T05:47:52;97483.47;;;-1.19;89.66
81545;BME280;70990;50.618;7.346;2024-01-16T05:50:18;97495.13;;;-1.34;90.26
81545;BME280;70990;50.618;7.346;2024-01-16T05:52:45;97490.69;;;-1.42;90.11
81545;BME280;70990;50.618;7.346;2024-01-16T05:55:12;97480.06;;;-1.16;90.39
81545;BME280;70990;50.618;7.346;2024-01-16T05:57:39;97486.72;;;-1.29;89.88
81545;BME280;70990;50.618;7.346;2024-01-16T06:00:06;97490.13;;;-0.97;89.10
81545;BME280;70990;50.618;7.346;2024-01-16T06:02:33;97480.88;;;-0.96;88.84
81545;BME280;70990;50.618;7.346;2024-01-16T06:05:01;97479.34;;;-1.13;89.01
81545;BME280;70990;50.618;7.346;2024-01-16T06:07:27;97485.78;;;-1.02;87.90
81545;BME280;70990;50.618;7.346;2024-01-16T06:09:54;97491.88;;;-1.24;87.85
81545;BME280;70990;50.618;7.346;2024-01-16T06:12:20;97487.16;;;-1.27;88.64
81545;BME280;70990;50.618;7.346;2024-01-16T06:14:47;97480.00;;;-1.35;88.87
81545;BME280;70990;50.618;7.346;2024-01-16T06:17:16;97487.88;;;-1.30;89.28
81545;BME280;70990;50.618;7.346;2024-01-16T06:19:43;97486.88;;;-1.22;88.36
81545;BME280;70990;50.618;7.346;2024-01-16T06:22:09;97481.34;;;-1.45;89.10
81545;BME280;70990;50.618;7.346;2024-01-16T06:24:36;97485.41;;;-1.19;87.85
81545;BME280;70990;50.618;7.346;2024-01-16T06:27:06;97486.22;;;-1.35;87.83
81545;BME280;70990;50.618;7.346;2024-01-16T06:29:33;97483.31;;;-1.26;87.11
81545;BME280;70990;50.618;7.346;2024-01-16T06:32:01;97487.28;;;-1.39;86.75
81545;BME280;70990;50.618;7.346;2024-01-16T06:34:28;97489.00;;;-1.31;86.21
81545;BME280;70990;50.618;7.346;2024-01-16T06:36:54;97478.06;;;-1.19;85.04
81545;BME280;70990;50.618;7.346;2024-01-16T06:39:21;97484.91;;;-1.25;84.80
81545;BME280;70990;50.618;7.346;2024-01-16T06:41:48;97482.81;;;-1.12;84.84
81545;BME280;70990;50.618;7.346;2024-01-16T06:44:14;97484.47;;;-1.27;84.74
81545;BME280;70990;50.618;7.346;2024-01-16T06:46:41;97486.53;;;-1.20;84.17
81545;BME280;70990;50.618;7.346;2024-01-16T06:49:07;97483.91;;;-1.17;84.02
81545;BME280;70990;50.618;7.346;2024-01-16T06:51:34;97480.88;;;-1.31;84.29
81545;BME280;70990;50.618;7.346;2024-01-16T06:54:01;97478.69;;;-1.26;83.64
81545;BME280;70990;50.618;7.346;2024-01-16T06:56:27;97474.41;;;-1.27;84.11
81545;BME280;70990;50.618;7.346;2024-01-16T06:58:54;97477.19;;;-1.23;84.03
81545;BME280;70990;50.618;7.346;2024-01-16T07:01:21;97487.50;;;-1.29;84.09
81545;BME280;70990;50.618;7.346;2024-01-16T07:03:48;97490.94;;;-1.12;82.99
81545;BME280;70990;50.618;7.346;2024-01-16T07:06:15;97486.81;;;-1.26;82.20
81545;BME280;70990;50.618;7.346;2024-01-16T07:08:41;97496.50;;;-1.25;81.79
81545;BME280;70990;50.618;7.346;2024-01-16T07:11:08;97494.84;;;-1.29;81.26
81545;BME280;70990;50.618;7.346;2024-01-16T07:13:35;97491.25;;;-1.17;80.76
81545;BME280;70990;50.618;7.346;2024-01-16T07:16:01;97500.72;;;-1.27;81.19
81545;BME280;70990;50.618;7.346;2024-01-16T07:18:28;97503.63;;;-1.01;79.93
81545;BME280;70990;50.618;7.346;2024-01-16T07:20:54;97504.13;;;-1.30;80.06
81545;BME280;70990;50.618;7.346;2024-01-16T07:23:21;97499.03;;;-1.16;79.79
81545;BME280;70990;50.618;7.346;2024-01-16T07:25:48;97508.59;;;-1.03;79.42
81545;BME280;70990;50.618;7.346;2024-01-16T07:28:14;97501.41;;;-1.30;79.02
81545;BME280;70990;50.618;7.346;2024-01-16T07:30:41;97498.16;;;-1.20;79.36
81545;BME280;70990;50.618;7.346;2024-01-16T07:33:07;97497.13;;;-1.31;79.07
81545;BME280;70990;50.618;7.346;2024-01-16T07:35:34;97505.28;;;-1.47;79.14
81545;BME280;70990;50.618;7.346;2024-01-16T07:38:01;97502.81;;;-1.36;77.95
81545;BME280;70990;50.618;7.346;2024-01-16T07:40:30;97506.06;;;-1.46;77.80
81545;BME280;70990;50.618;7.346;2024-01-16T07:42:57;97512.72;;;-1.59;77.93
81545;BME280;70990;50.618;7.346;2024-01-16T07:45:24;97516.41;;;-1.52;77.72
81545;BME280;70990;50.618;7.346;2024-01-16T07:47:51;97518.75;;;-1.50;77.46
81545;BME280;70990;50.618;7.346;2024-01-16T07:50:17;97513.34;;;-1.50;76.63
81545;BME280;70990;50.618;7.346;2024-01-16T07:52:44;97515.72;;;-1.65;77.64
81545;BME280;70990;50.618;7.346;2024-01-16T07:55:11;97518.75;;;-1.66;77.84
81545;BME280;70990;50.618;7.346;2024-01-16T07:57:37;97524.28;;;-1.63;77.28
81545;BME280;70990;50.618;7.346;2024-01-16T08:00:04;97531.34;;;-1.74;77.44
81545;BME280;70990;50.618;7.346;2024-01-16T08:02:32;97540.41;;;-1.66;77.70
81545;BME280;70990;50.618;7.346;2024-01-16T08:04:59;97535.16;;;-1.75;78.40
81545;BME280;70990;50.618;7.346;2024-01-16T08:07:26;97537.38;;;-1.65;77.30
81545;BME280;70990;50.618;7.346;2024-01-16T08:09:53;97531.44;;;-1.70;77.47
81545;BME280;70990;50.618;7.346;2024-01-16T08:12:20;97533.69;;;-1.72;77.97
81545;BME280;70990;50.618;7.346;2024-01-16T08:14:46;97536.31;;;-1.60;77.79
81545;BME280;70990;50.618;7.346;2024-01-16T08:17:13;97544.38;;;-1.64;77.28
81545;BME280;70990;50.618;7.346;2024-01-16T08:19:41;97545.75;;;-1.85;77.21
81545;BME280;70990;50.618;7.346;2024-01-16T08:22:07;97555.16;;;-1.79;78.18
81545;BME280;70990;50.618;7.346;2024-01-16T08:24:35;97544.00;;;-1.78;77.48
81545;BME280;70990;50.618;7.346;2024-01-16T08:27:02;97551.06;;;-1.89;77.27
81545;BME280;70990;50.618;7.346;2024-01-16T08:29:29;97549.22;;;-1.85;77.61
81545;BME280;70990;50.618;7.346;2024-01-16T08:31:55;97548.28;;;-1.77;77.61
81545;BME280;70990;50.618;7.346;2024-01-16T08:34:22;97546.06;;;-2.03;77.60
81545;BME280;70990;50.618;7.346;2024-01-16T08:36:48;97546.78;;;-1.90;77.29
81545;BME280;70990;50.618;7.346;2024-01-16T08:39:15;97543.56;;;-1.80;77.39
81545;BME280;70990;50.618;7.346;2024-01-16T08:41:43;97549.75;;;-1.79;77.42
81545;BME280;70990;50.618;7.346;2024-01-16T08:44:09;97543.41;;;-1.71;77.72
81545;BME280;70990;50.618;7.346;2024-01-16T08:46:36;97541.75;;;-1.76;77.48
81545;BME280;70990;50.618;7.346;2024-01-16T08:49:03;97536.38;;;-2.04;78.52
81545;BME280;70990;50.618;7.346;2024-01-16T08:51:29;97541.97;;;-1.96;78.18
81545;BME280;70990;50.618;7.346;2024-01-16T08:53:56;97557.13;;;-1.64;77.41
81545;BME280;70990;50.618;7.346;2024-01-16T08:56:23;97559.47;;;-1.47;76.53
81545;BME280;70990;50.618;7.346;2024-01-16T08:58:49;97563.66;;;-1.34;76.14
81545;BME280;70990;50.618;7.346;2024-01-16T09:01:16;97553.28;;;-1.12;76.13
81545;BME280;70990;50.618;7.346;2024-01-16T09:03:42;97557.16;;;-0.78;75.42
81545;BME280;70990;50.618;7.346;2024-01-16T09:06:09;97562.84;;;-0.84;75.62
81545;BME280;70990;50.618;7.346;2024-01-16T09:08:35;97568.75;;;-0.97;74.78
81545;BME280;70990;50.618;7.346;2024-01-16T09:11:02;97574.38;;;-1.22;75.54
81545;BME280;70990;50.618;7.346;2024-01-16T09:13:29;97570.38;;;-0.77;74.18
81545;BME280;70990;50.618;7.346;2024-01-16T09:15:55;97575.97;;;-1.20;74.74
81545;BME280;70990;50.618;7.346;2024-01-16T09:18:22;97576.63;;;-0.73;74.25
81545;BME280;70990;50.618;7.346;2024-01-16T09:20:48;97583.56;;;-1.26;75.26
81545;BME280;70990;50.618;7.346;2024-01-16T09:23:15;97571.81;;;-0.99;74.66
81545;BME280;70990;50.618;7.346;2024-01-16T09:25:42;97580.31;;;-1.00;75.09
81545;BME280;70990;50.618;7.346;2024-01-16T09:28:12;97585.19;;;-1.06;74.78
81545;BME280;70990;50.618;7.346;2024-01-16T09:30:38;97593.75;;;-1.04;74.54
81545;BME280;70990;50.618;7.346;2024-01-16T09:33:05;97578.06;;;-0.79;73.30
81545;BME280;70990;50.618;7.346;2024-01-16T09:35:32;97569.00;;;-0.67;73.69
81545;BME280;70990;50.618;7.346;2024-01-16T09:37:58;97588.44;;;-1.00;74.31
81545;BME280;70990;50.618;7.346;2024-01-16T09:40:34;97577.59;;;-0.46;72.90
81545;BME280;70990;50.618;7.346;2024-01-16T09:43:02;97567.44;;;-0.68;73.78
81545;BME280;70990;50.618;7.346;2024-01-16T09:45:29;97573.22;;;-0.12;72.63
81545;BME280;70990;50.618;7.346;2024-01-16T09:47:58;97572.28;;;0.19;71.22
81545;BME280;70990;50.618;7.346;2024-01-16T09:50:26;97573.69;;;0.13;70.40
81545;BME280;70990;50.618;7.346;2024-01-16T09:52:52;97568.81;;;0.22;71.32
81545;BME280;70990;50.618;7.346;2024-01-16T09:55:21;97550.31;;;-0.53;71.06
81545;BME280;70990;50.618;7.346;2024-01-16T09:57:52;97570.31;;;0.19;70.03
81545;BME280;70990;50.618;7.346;2024-01-16T10:00:19;97568.25;;;0.13;71.02
81545;BME280;70990;50.618;7.346;2024-01-16T10:02:46;97571.94;;;-0.18;71.42
81545;BME280;70990;50.618;7.346;2024-01-16T10:05:14;97579.91;;;0.13;70.58
81545;BME280;70990;50.618;7.346;2024-01-16T10:07:43;97571.34;;;0.11;69.54
81545;BME280;70990;50.618;7.346;2024-01-16T10:10:10;97571.72;;;-0.10;69.56
81545;BME280;70990;50.618;7.346;2024-01-16T10:12:38;97564.84;;;0.38;68.40
81545;BME280;70990;50.618;7.346;2024-01-16T10:15:08;97566.31;;;-0.10;69.75
81545;BME280;70990;50.618;7.346;2024-01-16T10:17:40;97557.25;;;0.25;68.51
81545;BME280;70990;50.618;7.346;2024-01-16T10:20:08;97559.69;;;0.11;67.86
81545;BME280;70990;50.618;7.346;2024-01-16T10:22:35;97559.28;;;-0.11;68.50
81545;BME280;70990;50.618;7.346;2024-01-16T10:25:12;97552.94;;;0.47;67.78
81545;BME280;70990;50.618;7.346;2024-01-16T10:27:40;97551.06;;;0.73;66.84
81545;BME280;70990;50.618;7.346;2024-01-16T10:30:14;97541.88;;;0.59;67.72
81545;BME280;70990;50.618;7.346;2024-01-16T10:32:42;97557.47;;;0.16;67.71
81545;BME280;70990;50.618;7.346;2024-01-16T10:35:13;97545.66;;;0.28;68.26
81545;BME280;70990;50.618;7.346;2024-01-16T10:37:50;97543.94;;;-0.03;68.62
81545;BME280;70990;50.618;7.346;2024-01-16T10:40:23;97534.53;;;0.14;68.22
81545;BME280;70990;50.618;7.346;2024-01-16T10:43:03;97533.75;;;0.36;67.71
81545;BME280;70990;50.618;7.346;2024-01-16T10:45:31;97518.22;;;0.59;67.98
81545;BME280;70990;50.618;7.346;2024-01-16T10:48:03;97526.91;;;0.46;67.30
81545;BME280;70990;50.618;7.346;2024-01-16T10:50:35;97521.97;;;0.28;68.28
81545;BME280;70990;50.618;7.346;2024-01-16T10:53:06;97520.78;;;0.03;67.24
81545;BME280;70990;50.618;7.346;2024-01-16T10:55:51;97513.72;;;0.21;68.80
81545;BME280;70990;50.618;7.346;2024-01-16T10:58:22;97514.81;;;0.17;68.20
81545;BME280;70990;50.618;7.346;2024-01-16T11:00:52;97506.28;;;0.41;67.18
81545;BME280;70990;50.618;7.346;2024-01-16T11:03:25;97502.69;;;0.60;66.73
81545;BME280;70990;50.618;7.346;2024-01-16T11:05:57;97499.97;;;0.86;66.45
81545;BME280;70990;50.618;7.346;2024-01-16T11:08:25;97493.41;;;0.38;66.35
81545;BME280;70990;50.618;7.346;2024-01-16T11:10:52;97499.28;;;0.40;65.77
81545;BME280;70990;50.618;7.346;2024-01-16T11:13:20;97494.59;;;0.37;65.33
81545;BME280;70990;50.618;7.346;2024-01-16T11:15:49;97488.66;;;0.31;66.66
81545;BME280;70990;50.618;7.346;2024-01-16T11:18:16;97480.78;;;0.75;66.35
81545;BME280;70990;50.618;7.346;2024-01-16T11:20:44;97491.53;;;0.95;66.03
81545;BME280;70990;50.618;7.346;2024-01-16T11:23:32;97486.16;;;1.28;63.45
81545;BME280;70990;50.618;7.346;2024-01-16T11:25:58;97499.50;;;1.37;62.21
81545;BME280;70990;50.618;7.346;2024-01-16T11:28:28;97485.66;;;1.52;62.83
81545;BME280;70990;50.618;7.346;2024-01-16T11:30:55;97481.28;;;1.78;62.61
81545;BME280;70990;50.618;7.346;2024-01-16T11:35:58;97478.25;;;3.54;58.45
81545;BME280;70990;50.618;7.346;2024-01-16T11:38:26;97475.34;;;2.57;59.58
81545;BME280;70990;50.618;7.346;2024-01-16T11:40:53;97472.16;;;3.02;59.39
81545;BME280;70990;50.618;7.346;2024-01-16T11:46:01;97468.78;;;3.30;55.75
81545;BME280;70990;50.618;7.346;2024-01-16T11:48:28;97470.38;;;1.41;61.55
81545;BME280;70990;50.618;7.346;2024-01-16T11:50:55;97475.41;;;1.39;61.54
81545;BME280;70990;50.618;7.346;2024-01-16T11:53:38;97489.16;;;1.86;59.67
81545;BME280;70990;50.618;7.346;2024-01-16T11:59:37;97467.91;;;3.08;57.76
81545;BME280;70990;50.618;7.346;2024-01-16T12:02:14;97478.00;;;4.58;53.74
81545;BME280;70990;50.618;7.346;2024-01-16T12:04:41;97480.25;;;3.71;55.61
81545;BME280;70990;50.618;7.346;2024-01-16T12:07:07;97482.59;;;2.90;55.88
81545;BME280;70990;50.618;7.346;2024-01-16T12:09:34;97469.47;;;3.09;56.78
81545;BME280;70990;50.618;7.346;2024-01-16T12:12:02;97473.72;;;3.03;57.51
81545;BME280;70990;50.618;7.346;2024-01-16T12:14:30;97454.06;;;2.73;57.54
81545;BME280;70990;50.618;7.346;2024-01-16T12:17:13;97451.72;;;2.75;56.03
81545;BME280;70990;50.618;7.346;2024-01-16T12:19:41;97446.13;;;3.22;54.92
81545;BME280;70990;50.618;7.346;2024-01-16T12:22:09;97446.06;;;2.43;57.70
81545;BME280;70990;50.618;7.346;2024-01-16T12:24:37;97427.25;;;4.36;52.88
81545;BME280;70990;50.618;7.346;2024-01-16T12:27:05;97418.56;;;4.76;52.56
81545;BME280;70990;50.618;7.346;2024-01-16T12:29:32;97424.88;;;4.10;53.32
81545;BME280;70990;50.618;7.346;2024-01-16T12:32:09;97422.53;;;4.51;51.54
81545;BME280;70990;50.618;7.346;2024-01-16T12:34:44;97422.31;;;5.36;49.96
81545;BME280;70990;50.618;7.346;2024-01-16T12:37:11;97409.00;;;6.07;49.58
81545;BME280;70990;50.618;7.346;2024-01-16T12:39:38;97411.97;;;3.85;51.09
81545;BME280;70990;50.618;7.346;2024-01-16T12:42:05;97412.66;;;4.96;50.73
81545;BME280;70990;50.618;7.346;2024-01-16T12:44:32;97409.56;;;4.90;51.87
81545;BME280;70990;50.618;7.346;2024-01-16T12:46:58;97405.31;;;3.72;52.73
81545;BME280;70990;50.618;7.346;2024-01-16T12:49:25;97420.38;;;1.96;56.25
81545;BME280;70990;50.618;7.346;2024-01-16T12:52:15;97405.22;;;1.18;58.56
81545;BME280;70990;50.618;7.346;2024-01-16T12:54:42;97399.66;;;1.44;58.64
81545;BME280;70990;50.618;7.346;2024-01-16T12:57:09;97395.38;;;1.43;60.61
81545;BME280;70990;50.618;7.346;2024-01-16T12:59:35;97407.75;;;2.22;59.40
81545;BME280;70990;50.618;7.346;2024-01-16T13:02:03;97396.28;;;2.53;57.04
81545;BME280;70990;50.618;7.346;2024-01-16T13:04:29;97396.28;;;2.53;56.12
81545;BME280;70990;50.618;7.346;2024-01-16T13:07:02;97390.63;;;1.74;57.79
81545;BME280;70990;50.618;7.346;2024-01-16T13:09:30;97385.81;;;2.04;58.42
81545;BME280;70990;50.618;7.346;2024-01-16T13:11:56;97387.59;;;1.08;61.05